sensor_id;sensor_type;location;lat;lon;timestamp;P1;durP1;ratioP1;P2;durP2;ratioP2
2049;SDS011;8478;49.208;8.806;2023-05-07T00:02:21;7.50;;;4.60;;
2049;SDS011;8478;49.208;8.806;2023-05-07T00:04:47;4.00;;;3.80;;
2049;SDS011;8478;49.208;8.806;2023-05-07T00:07:14;4.73;;;4.20;;
2049;SDS011;8478;49.208;8.806;2023-05-07T00:09:40;4.17;;;3.87;;
2049;SDS011;8478;49.208;8.806;2023-05-07T00:12:06;4.43;;;4.13;;
2049;SDS011;8478;49.208;8.806;2023-05-07T00:14:32;4.23;;;3.93;;
2049;SDS011;8478;49.208;8.806;2023-05-07T00:16:57;4.40;;;4.00;;
2049;SDS011;8478;49.208;8.806;2023-05-07T00:19:23;4.07;;;3.77;;
2049;SDS011;8478;49.208;8.806;2023-05-07T00:21:49;4.20;;;4.00;;
2049;SDS011;8478;49.208;8.806;2023-05-07T00:24:15;4.07;;;3.87;;
2049;SDS011;8478;49.208;8.806;2023-05-07T00:26:40;4.13;;;3.73;;
2049;SDS011;8478;49.208;8.806;2023-05-07T00:29:06;4.10;;;3.90;;
2049;SDS011;8478;49.208;8.806;2023-05-07T00:31:32;3.80;;;3.60;;
2049;SDS011;8478;49.208;8.806;2023-05-07T00:33:58;4.70;;;4.40;;
2049;SDS011;8478;49.208;8.806;2023-05-07T00:36:23;4.40;;;4.10;;
2049;SDS011;8478;49.208;8.806;2023-05-07T00:38:50;4.20;;;3.90;;
2049;SDS011;8478;49.208;8.806;2023-05-07T00:41:16;5.60;;;4.10;;
2049;SDS011;8478;49.208;8.806;2023-05-07T00:43:41;3.97;;;3.77;;
2049;SDS011;8478;49.208;8.806;2023-05-07T00:46:07;4.43;;;4.07;;
2049;SDS011;8478;49.208;8.806;2023-05-07T00:48:33;5.03;;;4.63;;
2049;SDS011;8478;49.208;8.806;2023-05-07T00:50:58;4.63;;;4.23;;
2049;SDS011;8478;49.208;8.806;2023-05-07T00:53:24;4.80;;;4.40;;
2049;SDS011;8478;49.208;8.806;2023-05-07T00:55:50;4.07;;;3.87;;
2049;SDS011;8478;49.208;8.806;2023-05-07T00:58:16;4.53;;;4.17;;
2049;SDS011;8478;49.208;8.806;2023-05-07T01:00:42;4.97;;;4.30;;
2049;SDS011;8478;49.208;8.806;2023-05-07T01:03:07;4.77;;;4.37;;
2049;SDS011;8478;49.208;8.806;2023-05-07T01:05:33;4.13;;;3.83;;
2049;SDS011;8478;49.208;8.806;2023-05-07T01:08:00;4.70;;;4.40;;
2049;SDS011;8478;49.208;8.806;2023-05-07T01:10:27;4.70;;;4.40;;
2049;SDS011;8478;49.208;8.806;2023-05-07T01:12:55;4.23;;;3.90;;
2049;SDS011;8478;49.208;8.806;2023-05-07T01:15:22;3.63;;;3.43;;
2049;SDS011;8478;49.208;8.806;2023-05-07T01:17:48;3.83;;;3.63;;
2049;SDS011;8478;49.208;8.806;2023-05-07T01:20:14;4.83;;;4.23;;
2049;SDS011;8478;49.208;8.806;2023-05-07T01:22:40;5.07;;;4.57;;
2049;SDS011;8478;49.208;8.806;2023-05-07T01:25:08;3.53;;;3.33;;
2049;SDS011;8478;49.208;8.806;2023-05-07T01:27:34;4.40;;;4.10;;
2049;SDS011;8478;49.208;8.806;2023-05-07T01:30:01;4.17;;;3.90;;
2049;SDS011;8478;49.208;8.806;2023-05-07T01:32:29;4.20;;;4.00;;
2049;SDS011;8478;49.208;8.806;2023-05-07T01:34:58;5.00;;;4.70;;
2049;SDS011;8478;49.208;8.806;2023-05-07T01:37:26;4.50;;;4.10;;
2049;SDS011;8478;49.208;8.806;2023-05-07T01:39:52;4.10;;;3.80;;
2049;SDS011;8478;49.208;8.806;2023-05-07T01:42:18;4.50;;;4.30;;
2049;SDS011;8478;49.208;8.806;2023-05-07T01:44:44;4.83;;;4.40;;
2049;SDS011;8478;49.208;8.806;2023-05-07T01:47:11;4.30;;;4.10;;
2049;SDS011;8478;49.208;8.806;2023-05-07T01:49:37;4.60;;;4.30;;
2049;SDS011;8478;49.208;8.806;2023-05-07T01:52:03;4.27;;;3.97;;
2049;SDS011;8478;49.208;8.806;2023-05-07T01:54:29;4.47;;;4.17;;
2049;SDS011;8478;49.208;8.806;2023-05-07T01:56:58;4.37;;;4.17;;
2049;SDS011;8478;49.208;8.806;2023-05-07T01:59:25;3.93;;;3.63;;
2049;SDS011;8478;49.208;8.806;2023-05-07T02:01:51;4.30;;;3.90;;
2049;SDS011;8478;49.208;8.806;2023-05-07T02:04:17;3.90;;;3.70;;
2049;SDS011;8478;49.208;8.806;2023-05-07T02:06:42;4.50;;;4.20;;
2049;SDS011;8478;49.208;8.806;2023-05-07T02:09:08;4.10;;;3.90;;
2049;SDS011;8478;49.208;8.806;2023-05-07T02:11:34;4.13;;;3.93;;
2049;SDS011;8478;49.208;8.806;2023-05-07T02:13:59;5.00;;;4.70;;
2049;SDS011;8478;49.208;8.806;2023-05-07T02:16:25;4.40;;;4.20;;
2049;SDS011;8478;49.208;8.806;2023-05-07T02:18:51;5.37;;;4.70;;
2049;SDS011;8478;49.208;8.806;2023-05-07T02:21:16;4.37;;;4.03;;
2049;SDS011;8478;49.208;8.806;2023-05-07T02:23:42;4.50;;;4.20;;
2049;SDS011;8478;49.208;8.806;2023-05-07T02:26:08;4.87;;;4.50;;
2049;SDS011;8478;49.208;8.806;2023-05-07T02:28:34;4.03;;;3.80;;
2049;SDS011;8478;49.208;8.806;2023-05-07T02:31:02;4.53;;;4.23;;
2049;SDS011;8478;49.208;8.806;2023-05-07T02:33:28;4.77;;;4.47;;
2049;SDS011;8478;49.208;8.806;2023-05-07T02:35:54;4.37;;;4.17;;
2049;SDS011;8478;49.208;8.806;2023-05-07T02:38:19;4.60;;;4.20;;
2049;SDS011;8478;49.208;8.806;2023-05-07T02:40:45;5.07;;;4.77;;
2049;SDS011;8478;49.208;8.806;2023-05-07T02:43:11;4.30;;;4.00;;
2049;SDS011;8478;49.208;8.806;2023-05-07T02:45:36;4.30;;;4.10;;
2049;SDS011;8478;49.208;8.806;2023-05-07T02:48:02;4.10;;;3.90;;
2049;SDS011;8478;49.208;8.806;2023-05-07T02:50:29;4.67;;;4.40;;
2049;SDS011;8478;49.208;8.806;2023-05-07T02:52:54;5.20;;;4.80;;
2049;SDS011;8478;49.208;8.806;2023-05-07T02:55:20;4.80;;;4.40;;
2049;SDS011;8478;49.208;8.806;2023-05-07T02:57:46;5.00;;;4.70;;
2049;SDS011;8478;49.208;8.806;2023-05-07T03:00:13;4.80;;;4.60;;
2049;SDS011;8478;49.208;8.806;2023-05-07T03:02:39;4.90;;;4.60;;
2049;SDS011;8478;49.208;8.806;2023-05-07T03:05:05;4.03;;;3.63;;
2049;SDS011;8478;49.208;8.806;2023-05-07T03:07:31;4.50;;;4.20;;
2049;SDS011;8478;49.208;8.806;2023-05-07T03:09:57;4.90;;;4.50;;
2049;SDS011;8478;49.208;8.806;2023-05-07T03:12:23;4.47;;;4.17;;
2049;SDS011;8478;49.208;8.806;2023-05-07T03:14:48;4.50;;;4.13;;
2049;SDS011;8478;49.208;8.806;2023-05-07T03:17:14;4.90;;;4.50;;
2049;SDS011;8478;49.208;8.806;2023-05-07T03:19:41;4.40;;;4.10;;
2049;SDS011;8478;49.208;8.806;2023-05-07T03:22:06;4.27;;;4.07;;
2049;SDS011;8478;49.208;8.806;2023-05-07T03:24:32;4.37;;;4.07;;
2049;SDS011;8478;49.208;8.806;2023-05-07T03:26:58;4.80;;;4.47;;
2049;SDS011;8478;49.208;8.806;2023-05-07T03:29:23;4.40;;;4.10;;
2049;SDS011;8478;49.208;8.806;2023-05-07T03:31:49;4.37;;;4.03;;
2049;SDS011;8478;49.208;8.806;2023-05-07T03:34:15;3.90;;;3.70;;
2049;SDS011;8478;49.208;8.806;2023-05-07T03:36:42;4.50;;;4.20;;
2049;SDS011;8478;49.208;8.806;2023-05-07T03:39:07;4.80;;;4.40;;
2049;SDS011;8478;49.208;8.806;2023-05-07T03:41:33;4.10;;;3.80;;
2049;SDS011;8478;49.208;8.806;2023-05-07T03:43:59;4.43;;;4.13;;
2049;SDS011;8478;49.208;8.806;2023-05-07T03:46:25;3.87;;;3.67;;
2049;SDS011;8478;49.208;8.806;2023-05-07T03:48:51;4.30;;;4.10;;
2049;SDS011;8478;49.208;8.806;2023-05-07T03:51:17;4.30;;;4.00;;
2049;SDS011;8478;49.208;8.806;2023-05-07T03:53:42;3.97;;;3.77;;
2049;SDS011;8478;49.208;8.806;2023-05-07T03:56:08;4.23;;;4.03;;
2049;SDS011;8478;49.208;8.806;2023-05-07T03:58:34;4.70;;;4.40;;
2049;SDS011;8478;49.208;8.806;2023-05-07T04:01:00;4.73;;;4.43;;
2049;SDS011;8478;49.208;8.806;2023-05-07T04:03:26;4.60;;;4.30;;
2049;SDS011;8478;49.208;8.806;2023-05-07T04:05:51;4.60;;;4.17;;
2049;SDS011;8478;49.208;8.806;2023-05-07T04:08:17;4.90;;;4.50;;
2049;SDS011;8478;49.208;8.806;2023-05-07T04:10:43;4.60;;;4.30;;
2049;SDS011;8478;49.208;8.806;2023-05-07T04:13:08;4.10;;;3.80;;
2049;SDS011;8478;49.208;8.806;2023-05-07T04:15:35;5.30;;;4.13;;
2049;SDS011;8478;49.208;8.806;2023-05-07T04:18:00;5.10;;;4.60;;
2049;SDS011;8478;49.208;8.806;2023-05-07T04:20:26;5.33;;;5.00;;
2049;SDS011;8478;49.208;8.806;2023-05-07T04:22:52;5.00;;;4.43;;
2049;SDS011;8478;49.208;8.806;2023-05-07T04:25:18;4.70;;;4.30;;
2049;SDS011;8478;49.208;8.806;2023-05-07T04:27:43;5.70;;;5.37;;
2049;SDS011;8478;49.208;8.806;2023-05-07T04:30:09;5.80;;;5.40;;
2049;SDS011;8478;49.208;8.806;2023-05-07T04:32:35;6.43;;;5.93;;
2049;SDS011;8478;49.208;8.806;2023-05-07T04:35:02;6.40;;;5.90;;
2049;SDS011;8478;49.208;8.806;2023-05-07T04:37:28;5.00;;;4.60;;
2049;SDS011;8478;49.208;8.806;2023-05-07T04:39:53;5.30;;;4.90;;
2049;SDS011;8478;49.208;8.806;2023-05-07T04:42:19;5.30;;;5.00;;
2049;SDS011;8478;49.208;8.806;2023-05-07T04:44:45;4.80;;;4.50;;
2049;SDS011;8478;49.208;8.806;2023-05-07T04:47:11;5.60;;;5.20;;
2049;SDS011;8478;49.208;8.806;2023-05-07T04:49:37;5.23;;;4.77;;
2049;SDS011;8478;49.208;8.806;2023-05-07T04:52:03;5.53;;;5.13;;
2049;SDS011;8478;49.208;8.806;2023-05-07T04:54:29;4.77;;;4.43;;
2049;SDS011;8478;49.208;8.806;2023-05-07T04:56:55;4.57;;;4.27;;
2049;SDS011;8478;49.208;8.806;2023-05-07T04:59:21;4.87;;;4.57;;
2049;SDS011;8478;49.208;8.806;2023-05-07T05:01:46;5.00;;;4.67;;
2049;SDS011;8478;49.208;8.806;2023-05-07T05:04:12;4.77;;;4.47;;
2049;SDS011;8478;49.208;8.806;2023-05-07T05:06:38;4.80;;;4.50;;
2049;SDS011;8478;49.208;8.806;2023-05-07T05:09:04;5.10;;;4.13;;
2049;SDS011;8478;49.208;8.806;2023-05-07T05:11:30;5.00;;;4.70;;
2049;SDS011;8478;49.208;8.806;2023-05-07T05:13:56;4.80;;;4.50;;
2049;SDS011;8478;49.208;8.806;2023-05-07T05:16:24;5.97;;;5.57;;
2049;SDS011;8478;49.208;8.806;2023-05-07T05:18:49;5.20;;;4.90;;
2049;SDS011;8478;49.208;8.806;2023-05-07T05:21:17;4.83;;;4.53;;
2049;SDS011;8478;49.208;8.806;2023-05-07T05:23:42;5.20;;;4.77;;
2049;SDS011;8478;49.208;8.806;2023-05-07T05:26:08;4.73;;;4.43;;
2049;SDS011;8478;49.208;8.806;2023-05-07T05:28:34;4.80;;;4.43;;
2049;SDS011;8478;49.208;8.806;2023-05-07T05:30:59;5.30;;;4.83;;
2049;SDS011;8478;49.208;8.806;2023-05-07T05:33:25;4.47;;;4.17;;
2049;SDS011;8478;49.208;8.806;2023-05-07T05:35:51;4.23;;;3.83;;
2049;SDS011;8478;49.208;8.806;2023-05-07T05:38:17;4.80;;;4.43;;
2049;SDS011;8478;49.208;8.806;2023-05-07T05:40:42;4.50;;;4.20;;
2049;SDS011;8478;49.208;8.806;2023-05-07T05:43:08;4.50;;;4.20;;
2049;SDS011;8478;49.208;8.806;2023-05-07T05:45:34;4.80;;;4.50;;
2049;SDS011;8478;49.208;8.806;2023-05-07T05:48:00;4.63;;;4.20;;
2049;SDS011;8478;49.208;8.806;2023-05-07T05:50:25;4.47;;;4.07;;
2049;SDS011;8478;49.208;8.806;2023-05-07T05:52:51;3.90;;;3.70;;
2049;SDS011;8478;49.208;8.806;2023-05-07T05:55:17;4.50;;;4.20;;
2049;SDS011;8478;49.208;8.806;2023-05-07T05:57:42;3.90;;;3.70;;
2049;SDS011;8478;49.208;8.806;2023-05-07T06:00:08;4.40;;;4.20;;
2049;SDS011;8478;49.208;8.806;2023-05-07T06:02:34;3.90;;;3.70;;
2049;SDS011;8478;49.208;8.806;2023-05-07T06:05:00;4.17;;;3.87;;
2049;SDS011;8478;49.208;8.806;2023-05-07T06:07:26;3.90;;;3.70;;
2049;SDS011;8478;49.208;8.806;2023-05-07T06:09:51;3.70;;;3.50;;
2049;SDS011;8478;49.208;8.806;2023-05-07T06:12:17;4.47;;;4.17;;
2049;SDS011;8478;49.208;8.806;2023-05-07T06:14:43;4.37;;;4.07;;
2049;SDS011;8478;49.208;8.806;2023-05-07T06:17:08;4.20;;;3.90;;
2049;SDS011;8478;49.208;8.806;2023-05-07T06:19:34;3.90;;;3.60;;
2049;SDS011;8478;49.208;8.806;2023-05-07T06:22:00;4.47;;;4.17;;
2049;SDS011;8478;49.208;8.806;2023-05-07T06:24:27;3.60;;;3.40;;
2049;SDS011;8478;49.208;8.806;2023-05-07T06:26:53;3.80;;;3.60;;
2049;SDS011;8478;49.208;8.806;2023-05-07T06:29:19;3.97;;;3.67;;
2049;SDS011;8478;49.208;8.806;2023-05-07T06:31:45;4.50;;;4.20;;
2049;SDS011;8478;49.208;8.806;2023-05-07T06:34:10;4.23;;;3.90;;
2049;SDS011;8478;49.208;8.806;2023-05-07T06:36:39;4.20;;;3.87;;
2049;SDS011;8478;49.208;8.806;2023-05-07T06:39:05;4.10;;;3.90;;
2049;SDS011;8478;49.208;8.806;2023-05-07T06:41:31;3.67;;;3.47;;
2049;SDS011;8478;49.208;8.806;2023-05-07T06:43:57;3.67;;;3.47;;
2049;SDS011;8478;49.208;8.806;2023-05-07T06:46:22;4.00;;;3.80;;
2049;SDS011;8478;49.208;8.806;2023-05-07T06:48:48;3.93;;;3.73;;
2049;SDS011;8478;49.208;8.806;2023-05-07T06:51:14;4.53;;;4.17;;
2049;SDS011;8478;49.208;8.806;2023-05-07T06:53:39;3.97;;;3.67;;
2049;SDS011;8478;49.208;8.806;2023-05-07T06:56:05;4.40;;;4.10;;
2049;SDS011;8478;49.208;8.806;2023-05-07T06:58:31;4.10;;;3.90;;
2049;SDS011;8478;49.208;8.806;2023-05-07T07:00:57;4.27;;;3.97;;
2049;SDS011;8478;49.208;8.806;2023-05-07T07:03:22;4.50;;;4.20;;
2049;SDS011;8478;49.208;8.806;2023-05-07T07:05:51;3.90;;;3.60;;
2049;SDS011;8478;49.208;8.806;2023-05-07T07:08:18;3.87;;;3.60;;
2049;SDS011;8478;49.208;8.806;2023-05-07T07:10:46;4.67;;;4.20;;
2049;SDS011;8478;49.208;8.806;2023-05-07T07:13:12;4.30;;;3.97;;
2049;SDS011;8478;49.208;8.806;2023-05-07T07:15:37;4.33;;;3.93;;
2049;SDS011;8478;49.208;8.806;2023-05-07T07:18:03;4.43;;;4.13;;
2049;SDS011;8478;49.208;8.806;2023-05-07T07:20:29;4.43;;;3.93;;
2049;SDS011;8478;49.208;8.806;2023-05-07T07:22:55;4.80;;;4.50;;
2049;SDS011;8478;49.208;8.806;2023-05-07T07:25:21;4.13;;;3.83;;
2049;SDS011;8478;49.208;8.806;2023-05-07T07:27:46;4.40;;;4.10;;
2049;SDS011;8478;49.208;8.806;2023-05-07T07:30:12;4.40;;;4.20;;
2049;SDS011;8478;49.208;8.806;2023-05-07T07:32:38;4.67;;;4.37;;
2049;SDS011;8478;49.208;8.806;2023-05-07T07:35:04;4.13;;;3.83;;
2049;SDS011;8478;49.208;8.806;2023-05-07T07:37:30;4.70;;;4.40;;
2049;SDS011;8478;49.208;8.806;2023-05-07T07:39:55;4.40;;;4.00;;
2049;SDS011;8478;49.208;8.806;2023-05-07T07:42:21;4.90;;;4.50;;
2049;SDS011;8478;49.208;8.806;2023-05-07T07:44:47;4.60;;;4.30;;
2049;SDS011;8478;49.208;8.806;2023-05-07T07:47:13;4.90;;;4.60;;
2049;SDS011;8478;49.208;8.806;2023-05-07T07:49:39;4.83;;;4.53;;
2049;SDS011;8478;49.208;8.806;2023-05-07T07:52:04;4.13;;;3.93;;
2049;SDS011;8478;49.208;8.806;2023-05-07T07:54:30;4.37;;;3.93;;
2049;SDS011;8478;49.208;8.806;2023-05-07T07:56:56;4.23;;;3.93;;
2049;SDS011;8478;49.208;8.806;2023-05-07T07:59:21;4.40;;;4.10;;
2049;SDS011;8478;49.208;8.806;2023-05-07T08:01:47;4.17;;;3.97;;
2049;SDS011;8478;49.208;8.806;2023-05-07T08:04:15;4.70;;;4.40;;
2049;SDS011;8478;49.208;8.806;2023-05-07T08:06:41;4.37;;;3.97;;
2049;SDS011;8478;49.208;8.806;2023-05-07T08:09:07;4.20;;;3.90;;
2049;SDS011;8478;49.208;8.806;2023-05-07T08:11:33;4.40;;;3.50;;
2049;SDS011;8478;49.208;8.806;2023-05-07T08:13:59;4.27;;;3.97;;
2049;SDS011;8478;49.208;8.806;2023-05-07T08:16:25;4.37;;;4.07;;
2049;SDS011;8478;49.208;8.806;2023-05-07T08:18:50;4.37;;;3.97;;
2049;SDS011;8478;49.208;8.806;2023-05-07T08:21:16;4.20;;;4.00;;
2049;SDS011;8478;49.208;8.806;2023-05-07T08:23:42;4.70;;;4.40;;
2049;SDS011;8478;49.208;8.806;2023-05-07T08:26:08;4.73;;;4.37;;
2049;SDS011;8478;49.208;8.806;2023-05-07T08:28:34;5.00;;;4.60;;
2049;SDS011;8478;49.208;8.806;2023-05-07T08:31:00;4.50;;;4.10;;
2049;SDS011;8478;49.208;8.806;2023-05-07T08:33:26;4.33;;;4.03;;
2049;SDS011;8478;49.208;8.806;2023-05-07T08:35:52;4.00;;;3.80;;
2049;SDS011;8478;49.208;8.806;2023-05-07T08:38:18;4.53;;;4.23;;
2049;SDS011;8478;49.208;8.806;2023-05-07T08:40:43;4.87;;;4.57;;
2049;SDS011;8478;49.208;8.806;2023-05-07T08:43:11;4.70;;;4.30;;
2049;SDS011;8478;49.208;8.806;2023-05-07T08:45:39;4.33;;;4.13;;
2049;SDS011;8478;49.208;8.806;2023-05-07T08:48:09;4.43;;;4.07;;
2049;SDS011;8478;49.208;8.806;2023-05-07T08:50:40;4.13;;;3.83;;
2049;SDS011;8478;49.208;8.806;2023-05-07T08:53:06;4.70;;;4.30;;
2049;SDS011;8478;49.208;8.806;2023-05-07T08:55:32;4.67;;;4.37;;
2049;SDS011;8478;49.208;8.806;2023-05-07T08:57:58;4.30;;;4.00;;
2049;SDS011;8478;49.208;8.806;2023-05-07T09:00:24;4.83;;;4.50;;
2049;SDS011;8478;49.208;8.806;2023-05-07T09:02:52;4.23;;;4.03;;
2049;SDS011;8478;49.208;8.806;2023-05-07T09:05:18;4.80;;;4.50;;
2049;SDS011;8478;49.208;8.806;2023-05-07T09:07:45;4.50;;;4.20;;
2049;SDS011;8478;49.208;8.806;2023-05-07T09:10:11;4.67;;;4.37;;
2049;SDS011;8478;49.208;8.806;2023-05-07T09:12:38;4.93;;;4.70;;
2049;SDS011;8478;49.208;8.806;2023-05-07T09:15:05;4.70;;;4.40;;
2049;SDS011;8478;49.208;8.806;2023-05-07T09:17:31;4.57;;;4.17;;
2049;SDS011;8478;49.208;8.806;2023-05-07T09:20:01;4.77;;;4.37;;
2049;SDS011;8478;49.208;8.806;2023-05-07T09:22:31;4.07;;;3.87;;
2049;SDS011;8478;49.208;8.806;2023-05-07T09:24:57;5.17;;;4.87;;
2049;SDS011;8478;49.208;8.806;2023-05-07T09:27:23;5.20;;;4.80;;
2049;SDS011;8478;49.208;8.806;2023-05-07T09:29:50;4.70;;;4.40;;
2049;SDS011;8478;49.208;8.806;2023-05-07T09:32:16;4.60;;;4.30;;
2049;SDS011;8478;49.208;8.806;2023-05-07T09:34:42;5.17;;;4.87;;
2049;SDS011;8478;49.208;8.806;2023-05-07T09:37:08;4.63;;;4.40;;
2049;SDS011;8478;49.208;8.806;2023-05-07T09:39:40;5.30;;;5.00;;
2049;SDS011;8478;49.208;8.806;2023-05-07T09:42:07;5.40;;;5.00;;
2049;SDS011;8478;49.208;8.806;2023-05-07T09:44:33;5.30;;;5.00;;
2049;SDS011;8478;49.208;8.806;2023-05-07T09:47:00;5.77;;;5.47;;
2049;SDS011;8478;49.208;8.806;2023-05-07T09:49:29;5.30;;;4.87;;
2049;SDS011;8478;49.208;8.806;2023-05-07T09:51:58;5.27;;;4.97;;
2049;SDS011;8478;49.208;8.806;2023-05-07T09:54:25;5.40;;;4.90;;
2049;SDS011;8478;49.208;8.806;2023-05-07T09:56:53;5.17;;;4.83;;
2049;SDS011;8478;49.208;8.806;2023-05-07T09:59:20;5.80;;;5.17;;
2049;SDS011;8478;49.208;8.806;2023-05-07T10:01:47;5.43;;;5.03;;
2049;SDS011;8478;49.208;8.806;2023-05-07T10:04:14;5.57;;;5.17;;
2049;SDS011;8478;49.208;8.806;2023-05-07T10:06:39;5.57;;;5.03;;
2049;SDS011;8478;49.208;8.806;2023-05-07T10:09:06;7.43;;;6.63;;
2049;SDS011;8478;49.208;8.806;2023-05-07T10:11:32;7.00;;;6.50;;
2049;SDS011;8478;49.208;8.806;2023-05-07T10:13:59;6.40;;;5.90;;
2049;SDS011;8478;49.208;8.806;2023-05-07T10:16:31;6.50;;;6.00;;
2049;SDS011;8478;49.208;8.806;2023-05-07T10:19:01;6.17;;;5.67;;
2049;SDS011;8478;49.208;8.806;2023-05-07T10:21:32;5.57;;;5.20;;
2049;SDS011;8478;49.208;8.806;2023-05-07T10:24:05;6.40;;;5.43;;
2049;SDS011;8478;49.208;8.806;2023-05-07T10:26:39;5.30;;;5.00;;
2049;SDS011;8478;49.208;8.806;2023-05-07T10:29:11;5.93;;;5.53;;
2049;SDS011;8478;49.208;8.806;2023-05-07T10:31:59;5.87;;;5.27;;
2049;SDS011;8478;49.208;8.806;2023-05-07T10:34:50;11.43;;;6.33;;
2049;SDS011;8478;49.208;8.806;2023-05-07T10:37:16;7.40;;;6.07;;
2049;SDS011;8478;49.208;8.806;2023-05-07T10:39:43;8.27;;;6.23;;
2049;SDS011;8478;49.208;8.806;2023-05-07T10:42:09;6.67;;;5.90;;
2049;SDS011;8478;49.208;8.806;2023-05-07T10:44:36;6.33;;;5.20;;
2049;SDS011;8478;49.208;8.806;2023-05-07T10:47:12;6.63;;;5.60;;
2049;SDS011;8478;49.208;8.806;2023-05-07T10:52:31;6.27;;;5.40;;
2049;SDS011;8478;49.208;8.806;2023-05-07T10:57:46;5.80;;;5.40;;
2049;SDS011;8478;49.208;8.806;2023-05-07T11:05:28;5.03;;;4.73;;
2049;SDS011;8478;49.208;8.806;2023-05-07T11:07:56;5.23;;;4.90;;
2049;SDS011;8478;49.208;8.806;2023-05-07T11:10:22;5.17;;;4.77;;
2049;SDS011;8478;49.208;8.806;2023-05-07T11:12:49;5.30;;;4.90;;
2049;SDS011;8478;49.208;8.806;2023-05-07T11:15:15;5.23;;;4.83;;
2049;SDS011;8478;49.208;8.806;2023-05-07T11:18:09;4.97;;;4.67;;
2049;SDS011;8478;49.208;8.806;2023-05-07T11:20:45;6.00;;;5.50;;
2049;SDS011;8478;49.208;8.806;2023-05-07T11:26:01;5.17;;;4.87;;
2049;SDS011;8478;49.208;8.806;2023-05-07T11:28:29;6.30;;;5.70;;
2049;SDS011;8478;49.208;8.806;2023-05-07T11:30:56;5.10;;;4.80;;
2049;SDS011;8478;49.208;8.806;2023-05-07T11:33:22;4.90;;;4.60;;
2049;SDS011;8478;49.208;8.806;2023-05-07T11:35:50;5.13;;;4.83;;
2049;SDS011;8478;49.208;8.806;2023-05-07T11:38:18;4.97;;;4.57;;
2049;SDS011;8478;49.208;8.806;2023-05-07T11:40:57;5.40;;;5.00;;
2049;SDS011;8478;49.208;8.806;2023-05-07T11:43:25;5.23;;;4.90;;
2049;SDS011;8478;49.208;8.806;2023-05-07T11:45:52;4.97;;;4.73;;
2049;SDS011;8478;49.208;8.806;2023-05-07T11:48:18;5.03;;;4.63;;
2049;SDS011;8478;49.208;8.806;2023-05-07T11:50:52;4.93;;;4.63;;
2049;SDS011;8478;49.208;8.806;2023-05-07T11:53:20;5.67;;;5.17;;
2049;SDS011;8478;49.208;8.806;2023-05-07T11:55:52;5.20;;;4.90;;
2049;SDS011;8478;49.208;8.806;2023-05-07T11:58:22;5.03;;;4.67;;
2049;SDS011;8478;49.208;8.806;2023-05-07T12:00:49;4.70;;;4.40;;
2049;SDS011;8478;49.208;8.806;2023-05-07T12:03:15;4.93;;;4.63;;
2049;SDS011;8478;49.208;8.806;2023-05-07T12:05:42;5.27;;;4.97;;
2049;SDS011;8478;49.208;8.806;2023-05-07T12:08:13;4.50;;;4.30;;
2049;SDS011;8478;49.208;8.806;2023-05-07T12:10:42;4.87;;;4.67;;
2049;SDS011;8478;49.208;8.806;2023-05-07T12:15:44;4.73;;;4.43;;
2049;SDS011;8478;49.208;8.806;2023-05-07T12:18:13;5.80;;;5.43;;
2049;SDS011;8478;49.208;8.806;2023-05-07T12:20:39;4.90;;;4.60;;
2049;SDS011;8478;49.208;8.806;2023-05-07T12:23:05;5.27;;;4.97;;
2049;SDS011;8478;49.208;8.806;2023-05-07T12:25:32;4.93;;;4.73;;
2049;SDS011;8478;49.208;8.806;2023-05-07T12:28:00;5.03;;;4.73;;
2049;SDS011;8478;49.208;8.806;2023-05-07T12:30:36;5.13;;;4.83;;
2049;SDS011;8478;49.208;8.806;2023-05-07T12:33:02;5.37;;;5.07;;
2049;SDS011;8478;49.208;8.806;2023-05-07T12:35:28;5.23;;;4.83;;
2049;SDS011;8478;49.208;8.806;2023-05-07T12:37:55;5.03;;;4.63;;
2049;SDS011;8478;49.208;8.806;2023-05-07T12:40:24;4.77;;;4.43;;
2049;SDS011;8478;49.208;8.806;2023-05-07T12:42:52;5.40;;;5.10;;
2049;SDS011;8478;49.208;8.806;2023-05-07T12:45:19;4.80;;;4.50;;
2049;SDS011;8478;49.208;8.806;2023-05-07T12:47:46;4.90;;;4.60;;
2049;SDS011;8478;49.208;8.806;2023-05-07T12:50:15;4.80;;;4.60;;
2049;SDS011;8478;49.208;8.806;2023-05-07T12:52:42;5.20;;;4.80;;
2049;SDS011;8478;49.208;8.806;2023-05-07T12:55:11;5.40;;;5.10;;
2049;SDS011;8478;49.208;8.806;2023-05-07T12:57:39;5.27;;;4.97;;
2049;SDS011;8478;49.208;8.806;2023-05-07T13:00:09;4.70;;;4.40;;
2049;SDS011;8478;49.208;8.806;2023-05-07T13:02:39;4.87;;;4.57;;
2049;SDS011;8478;49.208;8.806;2023-05-07T13:05:06;4.90;;;4.60;;
2049;SDS011;8478;49.208;8.806;2023-05-07T13:07:33;5.30;;;5.00;;
2049;SDS011;8478;49.208;8.806;2023-05-07T13:09:59;4.93;;;4.63;;
2049;SDS011;8478;49.208;8.806;2023-05-07T13:12:24;5.20;;;4.80;;
2049;SDS011;8478;49.208;8.806;2023-05-07T13:14:50;5.80;;;5.50;;
2049;SDS011;8478;49.208;8.806;2023-05-07T13:17:16;5.27;;;4.97;;
2049;SDS011;8478;49.208;8.806;2023-05-07T13:19:41;4.93;;;4.63;;
2049;SDS011;8478;49.208;8.806;2023-05-07T13:22:07;5.50;;;5.20;;
2049;SDS011;8478;49.208;8.806;2023-05-07T13:24:33;4.87;;;4.57;;
2049;SDS011;8478;49.208;8.806;2023-05-07T13:26:58;5.13;;;4.73;;
2049;SDS011;8478;49.208;8.806;2023-05-07T13:29:24;5.00;;;4.70;;
2049;SDS011;8478;49.208;8.806;2023-05-07T13:31:54;4.63;;;4.33;;
2049;SDS011;8478;49.208;8.806;2023-05-07T13:34:20;5.23;;;4.80;;
2049;SDS011;8478;49.208;8.806;2023-05-07T13:36:45;6.80;;;4.57;;
2049;SDS011;8478;49.208;8.806;2023-05-07T13:39:11;9.27;;;5.20;;
2049;SDS011;8478;49.208;8.806;2023-05-07T13:41:37;5.03;;;4.53;;
2049;SDS011;8478;49.208;8.806;2023-05-07T13:44:03;8.80;;;5.60;;
2049;SDS011;8478;49.208;8.806;2023-05-07T13:46:29;6.90;;;5.70;;
2049;SDS011;8478;49.208;8.806;2023-05-07T13:48:55;4.73;;;4.33;;
2049;SDS011;8478;49.208;8.806;2023-05-07T13:51:21;7.23;;;4.70;;
2049;SDS011;8478;49.208;8.806;2023-05-07T13:53:47;6.13;;;5.03;;
2049;SDS011;8478;49.208;8.806;2023-05-07T13:56:12;8.37;;;4.83;;
2049;SDS011;8478;49.208;8.806;2023-05-07T13:58:39;5.10;;;4.07;;
2049;SDS011;8478;49.208;8.806;2023-05-07T14:01:05;4.20;;;3.90;;
2049;SDS011;8478;49.208;8.806;2023-05-07T14:03:31;4.93;;;4.43;;
2049;SDS011;8478;49.208;8.806;2023-05-07T14:05:58;5.00;;;4.60;;
2049;SDS011;8478;49.208;8.806;2023-05-07T14:08:25;4.87;;;4.47;;
2049;SDS011;8478;49.208;8.806;2023-05-07T14:10:51;6.03;;;4.13;;
2049;SDS011;8478;49.208;8.806;2023-05-07T14:13:16;4.30;;;4.00;;
2049;SDS011;8478;49.208;8.806;2023-05-07T14:15:42;4.50;;;4.10;;
2049;SDS011;8478;49.208;8.806;2023-05-07T14:18:11;5.00;;;4.50;;
2049;SDS011;8478;49.208;8.806;2023-05-07T14:20:38;6.97;;;5.37;;
2049;SDS011;8478;49.208;8.806;2023-05-07T14:23:04;6.57;;;5.50;;
2049;SDS011;8478;49.208;8.806;2023-05-07T14:25:29;5.60;;;4.60;;
2049;SDS011;8478;49.208;8.806;2023-05-07T14:27:55;5.40;;;5.00;;
2049;SDS011;8478;49.208;8.806;2023-05-07T14:30:21;4.50;;;4.20;;
2049;SDS011;8478;49.208;8.806;2023-05-07T14:32:49;6.87;;;4.77;;
2049;SDS011;8478;49.208;8.806;2023-05-07T14:35:15;5.10;;;4.60;;
2049;SDS011;8478;49.208;8.806;2023-05-07T14:37:42;5.20;;;4.73;;
2049;SDS011;8478;49.208;8.806;2023-05-07T14:40:08;4.90;;;4.57;;
2049;SDS011;8478;49.208;8.806;2023-05-07T14:42:34;4.37;;;4.17;;
2049;SDS011;8478;49.208;8.806;2023-05-07T14:45:00;4.73;;;4.33;;
2049;SDS011;8478;49.208;8.806;2023-05-07T14:47:26;5.13;;;4.63;;
2049;SDS011;8478;49.208;8.806;2023-05-07T14:49:52;6.47;;;4.30;;
2049;SDS011;8478;49.208;8.806;2023-05-07T14:52:18;4.73;;;4.20;;
2049;SDS011;8478;49.208;8.806;2023-05-07T14:54:44;5.90;;;4.73;;
2049;SDS011;8478;49.208;8.806;2023-05-07T14:57:10;4.37;;;4.07;;
2049;SDS011;8478;49.208;8.806;2023-05-07T14:59:41;8.17;;;4.03;;
2049;SDS011;8478;49.208;8.806;2023-05-07T15:02:07;5.07;;;4.57;;
2049;SDS011;8478;49.208;8.806;2023-05-07T15:04:33;4.93;;;4.53;;
2049;SDS011;8478;49.208;8.806;2023-05-07T15:06:59;4.03;;;3.73;;
2049;SDS011;8478;49.208;8.806;2023-05-07T15:09:25;5.10;;;4.60;;
2049;SDS011;8478;49.208;8.806;2023-05-07T15:11:51;4.90;;;4.50;;
2049;SDS011;8478;49.208;8.806;2023-05-07T15:14:17;3.87;;;3.57;;
2049;SDS011;8478;49.208;8.806;2023-05-07T15:16:43;4.53;;;4.17;;
2049;SDS011;8478;49.208;8.806;2023-05-07T15:19:08;6.87;;;4.37;;
2049;SDS011;8478;49.208;8.806;2023-05-07T15:21:34;5.80;;;3.90;;
2049;SDS011;8478;49.208;8.806;2023-05-07T15:24:04;4.77;;;4.37;;
2049;SDS011;8478;49.208;8.806;2023-05-07T15:26:30;4.40;;;4.00;;
2049;SDS011;8478;49.208;8.806;2023-05-07T15:28:55;5.47;;;4.13;;